createdAt,value
2022-09-02T00:01:41.592Z,48.20
2022-09-02T00:04:13.870Z,48.40
2022-09-02T00:06:43.733Z,48.40
2022-09-02T00:09:15.596Z,48.40
2022-09-02T00:11:46.709Z,48.40
2022-09-02T00:14:19.789Z,48.50
2022-09-02T00:16:52.459Z,48.50
2022-09-02T00:19:22.952Z,48.60
2022-09-02T00:21:52.485Z,48.60
2022-09-02T00:24:21.059Z,48.60
2022-09-02T00:26:49.722Z,48.60
2022-09-02T00:29:18.799Z,48.70
2022-09-02T00:31:49.385Z,48.70
2022-09-02T00:34:17.822Z,48.80
2022-09-02T00:36:46.197Z,48.80
2022-09-02T00:39:14.685Z,48.90
2022-09-02T00:41:45.515Z,48.80
2022-09-02T00:44:16.744Z,48.70
2022-09-02T00:46:46.091Z,48.70
2022-09-02T00:49:24.306Z,48.60
2022-09-02T00:51:56.847Z,48.80
2022-09-02T00:54:28.671Z,48.80
2022-09-02T00:56:57.777Z,48.90
2022-09-02T00:59:34.793Z,48.70
2022-09-02T01:02:03.398Z,48.80
2022-09-02T01:04:33.185Z,48.70
2022-09-02T01:07:02.318Z,48.80
2022-09-02T01:09:32.323Z,48.90
2022-09-02T01:12:03.048Z,48.90
2022-09-02T01:14:32.037Z,48.90
2022-09-02T01:17:02.627Z,49.00
2022-09-02T01:19:36.839Z,49.10
2022-09-02T01:22:30.378Z,49.20
2022-09-02T01:25:06.295Z,49.10
2022-09-02T01:27:35.014Z,49.10
2022-09-02T01:30:03.557Z,49.00
2022-09-02T01:32:32.293Z,49.00
2022-09-02T01:35:00.938Z,49.00
2022-09-02T01:37:32.344Z,49.00
2022-09-02T01:40:01.346Z,49.00
2022-09-02T01:42:29.795Z,49.00
2022-09-02T01:44:58.623Z,49.10
2022-09-02T01:47:29.603Z,49.10
2022-09-02T01:49:57.991Z,49.10
2022-09-02T01:52:28.671Z,49.20
2022-09-02T01:54:59.408Z,49.20
2022-09-02T01:57:27.884Z,49.20
2022-09-02T01:59:56.697Z,49.20
2022-09-02T02:02:25.422Z,49.20
2022-09-02T02:04:54.822Z,49.40
2022-09-02T02:07:25.011Z,49.30
2022-09-02T02:09:53.564Z,49.30
2022-09-02T02:12:23.659Z,49.90
2022-09-02T02:14:52.129Z,49.30
2022-09-02T02:17:23.426Z,49.40
2022-09-02T02:19:51.731Z,49.40
2022-09-02T02:22:20.992Z,49.40
2022-09-02T02:24:49.606Z,49.40
2022-09-02T02:27:18.072Z,49.40
2022-09-02T02:29:48.267Z,49.40
2022-09-02T02:32:18.465Z,49.50
2022-09-02T02:34:47.186Z,49.50
2022-09-02T02:37:16.845Z,49.60
2022-09-02T02:39:45.603Z,49.60
2022-09-02T02:42:14.167Z,49.70
2022-09-02T02:44:43.727Z,49.70
2022-09-02T02:47:13.525Z,49.70
2022-09-02T02:49:45.185Z,49.70
2022-09-02T02:52:14.670Z,49.70
2022-09-02T02:54:44.101Z,49.80
2022-09-02T02:57:14.268Z,49.70
2022-09-02T02:59:42.702Z,49.70
2022-09-02T03:02:15.007Z,49.60
2022-09-02T03:04:43.608Z,49.70
2022-09-02T03:07:12.011Z,49.80
2022-09-02T03:09:40.348Z,49.90
2022-09-02T03:12:09.378Z,49.80
2022-09-02T03:14:38.122Z,49.80
2022-09-02T03:17:07.233Z,49.80
2022-09-02T03:19:37.297Z,50.40
2022-09-02T03:22:06.773Z,49.90
2022-09-02T03:24:36.107Z,49.80
2022-09-02T03:27:05.052Z,49.90
2022-09-02T03:29:33.439Z,49.90
2022-09-02T03:32:02.976Z,49.80
2022-09-02T03:34:33.084Z,49.80
2022-09-02T03:37:02.892Z,49.90
2022-09-02T03:39:32.087Z,49.90
2022-09-02T03:42:01.063Z,49.90
2022-09-02T03:44:29.845Z,49.90
2022-09-02T03:46:58.444Z,49.90
2022-09-02T03:49:27.886Z,49.90
2022-09-02T03:51:56.801Z,50.00
2022-09-02T03:54:27.162Z,50.00
2022-09-02T03:56:58.344Z,50.30
2022-09-02T03:59:27.131Z,50.10
2022-09-02T04:01:55.716Z,50.20
2022-09-02T04:04:24.416Z,50.20
2022-09-02T04:06:54.289Z,50.30
2022-09-02T04:09:23.181Z,50.30
2022-09-02T04:11:53.245Z,50.30
2022-09-02T04:14:21.785Z,50.30
2022-09-02T04:16:50.133Z,50.30
2022-09-02T04:19:18.677Z,50.30
2022-09-02T04:21:47.283Z,50.30
2022-09-02T04:24:15.893Z,50.30
2022-09-02T04:26:47.760Z,50.30
2022-09-02T04:29:20.217Z,50.40
2022-09-02T04:31:51.663Z,50.50
2022-09-02T04:34:20.261Z,50.50
2022-09-02T04:36:50.963Z,50.60
2022-09-02T04:39:20.948Z,50.60
2022-09-02T04:41:50.766Z,50.60
2022-09-02T04:44:20.619Z,50.60
2022-09-02T04:46:50.297Z,50.60
2022-09-02T04:49:20.848Z,50.70
2022-09-02T04:51:54.529Z,50.70
2022-09-02T04:54:24.469Z,50.70
2022-09-02T04:56:53.943Z,50.70
2022-09-02T04:59:24.368Z,50.80
2022-09-02T05:02:02.596Z,51.40
2022-09-02T05:04:33.353Z,50.90
2022-09-02T05:07:02.758Z,50.90
2022-09-02T05:09:36.569Z,50.90
2022-09-02T05:12:07.517Z,51.10
2022-09-02T05:14:51.688Z,51.00
2022-09-02T05:17:22.654Z,51.00
2022-09-02T05:19:51.305Z,51.00
2022-09-02T05:22:20.048Z,51.00
2022-09-02T05:24:48.720Z,51.00
2022-09-02T05:27:17.216Z,51.10
2022-09-02T05:29:47.440Z,51.10
2022-09-02T05:32:19.795Z,51.20
2022-09-02T05:34:50.169Z,51.20
2022-09-02T05:37:18.593Z,51.20
2022-09-02T05:39:47.655Z,51.20
2022-09-02T05:42:16.722Z,51.30
2022-09-02T05:44:47.557Z,51.40
2022-09-02T05:47:21.479Z,51.60
2022-09-02T05:49:50.577Z,51.60
2022-09-02T05:52:19.074Z,51.60
2022-09-02T05:54:50.623Z,51.70
2022-09-02T05:57:22.964Z,51.70
2022-09-02T06:00:07.737Z,51.80
2022-09-02T06:02:52.511Z,51.80
2022-09-02T06:05:30.942Z,51.80
2022-09-02T06:08:09.271Z,51.90
2022-09-02T06:10:43.369Z,51.90
2022-09-02T06:13:15.840Z,52.10
2022-09-02T06:15:45.200Z,52.00
2022-09-02T06:18:17.381Z,52.10
2022-09-02T06:20:51.202Z,52.30
2022-09-02T06:23:20.048Z,52.20
2022-09-02T06:25:50.725Z,52.30
2022-09-02T06:28:20.472Z,52.40
2022-09-02T06:30:50.568Z,52.40
2022-09-02T06:33:25.211Z,52.50
2022-09-02T06:35:54.026Z,52.60
2022-09-02T06:38:22.399Z,52.70
2022-09-02T06:40:55.318Z,52.80
2022-09-02T06:43:30.851Z,53.00
2022-09-02T06:46:19.838Z,53.00
2022-09-02T06:48:52.289Z,53.10
2022-09-02T06:51:26.759Z,53.20
2022-09-02T06:53:56.616Z,53.30
2022-09-02T06:56:28.683Z,53.30
2022-09-02T06:58:57.975Z,53.40
2022-09-02T07:01:44.195Z,53.50
2022-09-02T07:04:35.146Z,53.50
2022-09-02T07:07:06.588Z,53.60
2022-09-02T07:09:40.283Z,53.70
2022-09-02T07:12:14.804Z,53.70
2022-09-02T07:14:50.221Z,53.70
2022-09-02T07:17:25.488Z,53.90
2022-09-02T07:20:00.692Z,53.90
2022-09-02T07:22:32.825Z,54.00
2022-09-02T07:25:03.299Z,54.00
2022-09-02T07:27:32.719Z,54.10
2022-09-02T07:30:01.015Z,54.10
2022-09-02T07:32:29.613Z,54.20
2022-09-02T07:34:58.182Z,54.20
2022-09-02T07:37:28.349Z,54.10
2022-09-02T07:39:57.700Z,54.20
2022-09-02T07:44:56.433Z,54.00
2022-09-02T07:47:25.203Z,54.00
2022-09-02T07:52:44.631Z,53.90
2022-09-02T07:55:15.088Z,53.90
2022-09-02T07:57:45.221Z,53.80
2022-09-02T08:00:16.556Z,53.70
2022-09-02T08:02:49.315Z,53.70
2022-09-02T08:05:23.783Z,53.60
2022-09-02T08:07:53.634Z,53.50
2022-09-02T08:10:27.244Z,53.40
2022-09-02T08:12:55.629Z,53.30
2022-09-02T08:15:24.013Z,53.10
2022-09-02T08:17:53.598Z,53.00
2022-09-02T08:20:22.287Z,52.90
2022-09-02T08:22:59.274Z,52.80
2022-09-02T08:25:40.961Z,52.70
2022-09-02T08:28:09.717Z,52.50
2022-09-02T08:30:38.075Z,52.40
2022-09-02T08:33:06.556Z,52.30
2022-09-02T08:35:35.387Z,52.20
2022-09-02T08:38:03.710Z,52.10
2022-09-02T08:40:38.299Z,52.00
2022-09-02T08:43:27.798Z,51.90
2022-09-02T08:45:59.817Z,51.70
2022-09-02T08:48:38.271Z,51.70
2022-09-02T08:51:11.787Z,51.30
2022-09-02T08:53:51.249Z,51.30
2022-09-02T08:56:20.513Z,51.10
2022-09-02T08:58:56.474Z,51.00
2022-09-02T09:01:43.683Z,51.00
2022-09-02T09:04:36.501Z,50.90
2022-09-02T09:07:29.145Z,50.80
2022-09-02T09:10:16.147Z,50.70
2022-09-02T09:13:10.446Z,50.80
2022-09-02T09:15:50.493Z,50.70
2022-09-02T09:18:24.924Z,50.80
2022-09-02T09:20:53.321Z,50.60
2022-09-02T09:23:33.989Z,50.50
2022-09-02T09:26:09.463Z,50.30
2022-09-02T09:28:43.615Z,50.30
2022-09-02T09:31:15.991Z,50.20
2022-09-02T09:33:58.719Z,50.00
2022-09-02T09:36:53.576Z,49.80
2022-09-02T09:39:30.088Z,49.60
2022-09-02T09:42:00.752Z,49.80
2022-09-02T09:44:47.983Z,49.90
2022-09-02T09:47:20.596Z,49.60
2022-09-02T09:49:51.795Z,49.50
2022-09-02T09:52:29.234Z,49.50
2022-09-02T09:55:20.959Z,49.30
2022-09-02T09:57:54.783Z,48.90
2022-09-02T10:00:29.354Z,49.20
2022-09-02T10:03:02.606Z,49.10
2022-09-02T10:05:36.066Z,49.00
2022-09-02T10:08:13.125Z,49.20
2022-09-02T10:10:59.669Z,49.30
2022-09-02T10:13:31.977Z,49.10
2022-09-02T10:16:35.859Z,49.50
2022-09-02T10:19:19.921Z,49.20
2022-09-02T10:22:58.634Z,49.40
2022-09-02T10:25:35.865Z,48.80
2022-09-02T10:28:18.047Z,48.50
2022-09-02T10:30:56.858Z,48.00
2022-09-02T10:33:42.026Z,48.00
2022-09-02T10:36:25.299Z,47.50
2022-09-02T10:38:53.896Z,47.20
2022-09-02T10:44:33.950Z,46.20
2022-09-02T10:47:04.887Z,45.90
2022-09-02T10:49:56.995Z,46.40
2022-09-02T10:52:59.219Z,45.70
2022-09-02T10:55:41.790Z,45.40
2022-09-02T10:58:15.826Z,45.80
2022-09-02T11:00:51.826Z,46.00
2022-09-02T11:03:25.753Z,46.10
2022-09-02T11:05:58.629Z,45.70
2022-09-02T11:08:37.882Z,45.60
2022-09-02T11:11:13.417Z,45.00
2022-09-02T11:13:55.691Z,44.90
2022-09-02T11:16:28.899Z,44.70
2022-09-02T11:19:04.223Z,44.70
2022-09-02T11:21:46.643Z,44.30
2022-09-02T11:24:23.388Z,44.30
2022-09-02T11:27:00.743Z,44.10
2022-09-02T11:29:39.981Z,43.70
2022-09-02T11:32:18.558Z,43.60
2022-09-02T11:34:50.631Z,43.50
2022-09-02T11:37:32.936Z,43.60
2022-09-02T11:40:33.395Z,43.20
2022-09-02T11:43:11.983Z,43.40
2022-09-02T11:46:08.327Z,43.00
2022-09-02T11:49:09.132Z,42.80
2022-09-02T11:52:13.340Z,42.70
2022-09-02T11:54:47.581Z,42.70
2022-09-02T11:57:24.767Z,43.00
2022-09-02T12:00:30.773Z,42.80
2022-09-02T12:03:37.989Z,42.10
2022-09-02T12:06:10.637Z,42.70
2022-09-02T12:09:12.288Z,42.90
2022-09-02T12:11:54.869Z,42.50
2022-09-02T12:15:14.991Z,42.90
2022-09-02T12:18:10.913Z,42.20
2022-09-02T12:21:18.250Z,42.70
2022-09-02T12:24:13.014Z,42.30
2022-09-02T12:27:09.623Z,42.10
2022-09-02T12:29:39.682Z,42.00
2022-09-02T12:32:10.380Z,42.60
2022-09-02T12:34:57.033Z,42.30
2022-09-02T12:37:57.180Z,41.50
2022-09-02T12:40:38.399Z,41.10
2022-09-02T12:43:31.092Z,41.50
2022-09-02T12:46:14.911Z,41.80
2022-09-02T12:48:53.021Z,41.60
2022-09-02T12:51:56.592Z,41.40
2022-09-02T12:54:36.387Z,41.10
2022-09-02T12:57:05.547Z,41.80
2022-09-02T12:59:36.006Z,41.80
2022-09-02T13:02:29.597Z,41.80
2022-09-02T13:05:25.450Z,40.90
2022-09-02T13:08:34.488Z,41.00
2022-09-02T13:11:52.327Z,40.90
2022-09-02T13:14:53.574Z,41.10
2022-09-02T13:17:43.905Z,40.90
2022-09-02T13:20:45.198Z,41.30
2022-09-02T13:23:54.196Z,41.30
2022-09-02T13:26:51.598Z,40.90
2022-09-02T13:29:58.766Z,41.20
2022-09-02T13:32:30.544Z,40.90
2022-09-02T13:35:03.664Z,41.30
2022-09-02T13:37:37.106Z,41.30
2022-09-02T13:40:19.310Z,41.20
2022-09-02T13:42:52.739Z,41.20
2022-09-02T13:45:24.077Z,41.20
2022-09-02T13:47:55.910Z,41.10
2022-09-02T13:50:28.093Z,41.20
2022-09-02T13:55:56.140Z,40.70
2022-09-02T13:58:36.023Z,40.90
2022-09-02T14:01:25.084Z,40.80
2022-09-02T14:03:56.159Z,40.30
2022-09-02T14:06:29.037Z,41.10
2022-09-02T14:09:01.876Z,41.00
2022-09-02T14:11:37.663Z,40.90
2022-09-02T14:14:06.165Z,40.90
2022-09-02T14:16:37.170Z,41.00
2022-09-02T14:19:14.481Z,40.80
2022-09-02T14:21:50.335Z,40.70
2022-09-02T14:24:24.076Z,40.30
2022-09-02T14:26:54.967Z,40.30
2022-09-02T14:29:24.785Z,40.20
2022-09-02T14:32:14.022Z,40.30
2022-09-02T14:34:44.857Z,39.50
2022-09-02T14:37:23.803Z,40.10
2022-09-02T14:40:09.435Z,39.80
2022-09-02T14:42:51.731Z,39.80
2022-09-02T14:45:29.188Z,39.90
2022-09-02T14:48:01.901Z,40.10
2022-09-02T14:50:32.941Z,40.10
2022-09-02T14:53:06.036Z,40.30
2022-09-02T14:55:57.544Z,40.20
2022-09-02T14:58:28.582Z,39.40
2022-09-02T15:01:00.338Z,39.70
2022-09-02T15:03:30.806Z,39.70
2022-09-02T15:05:59.180Z,39.90
2022-09-02T15:08:27.690Z,40.10
2022-09-02T15:11:02.157Z,40.00
2022-09-02T15:13:34.215Z,39.80
2022-09-02T15:16:03.320Z,40.00
2022-09-02T15:18:32.007Z,40.10
2022-09-02T15:21:00.316Z,39.90
2022-09-02T15:23:30.798Z,39.90
2022-09-02T15:26:03.555Z,39.90
2022-09-02T15:28:31.967Z,39.60
2022-09-02T15:31:00.633Z,39.50
2022-09-02T15:33:29.888Z,39.40
2022-09-02T15:36:07.528Z,39.20
2022-09-02T15:38:37.623Z,38.70
2022-09-02T15:41:19.500Z,39.20
2022-09-02T15:43:49.039Z,38.50
2022-09-02T15:46:38.497Z,39.20
2022-09-02T15:49:09.795Z,39.20
2022-09-02T15:51:39.577Z,39.20
2022-09-02T15:54:11.298Z,39.50
2022-09-02T15:56:47.512Z,39.50
2022-09-02T15:59:18.100Z,39.40
2022-09-02T16:01:49.087Z,39.50
2022-09-02T16:04:17.714Z,39.50
2022-09-02T16:06:49.133Z,39.50
2022-09-02T16:09:18.882Z,39.30
2022-09-02T16:11:51.799Z,39.40
2022-09-02T16:14:21.488Z,39.30
2022-09-02T16:16:51.089Z,39.40
2022-09-02T16:19:21.429Z,39.50
2022-09-02T16:21:49.895Z,39.40
2022-09-02T16:24:20.030Z,39.40
2022-09-02T16:26:50.490Z,39.50
2022-09-02T16:29:19.566Z,39.50
2022-09-02T16:32:02.233Z,39.60
2022-09-02T16:34:38.811Z,39.50
2022-09-02T16:37:07.169Z,39.60
2022-09-02T16:39:35.531Z,40.20
2022-09-02T16:42:05.778Z,39.60
2022-09-02T16:44:35.800Z,39.50
2022-09-02T16:47:04.324Z,39.60
2022-09-02T16:49:34.482Z,39.50
2022-09-02T16:52:02.899Z,39.50
2022-09-02T16:54:32.997Z,39.50
2022-09-02T16:57:06.240Z,39.50
2022-09-02T16:59:34.625Z,39.50
2022-09-02T17:02:03.034Z,39.60
2022-09-02T17:04:31.363Z,39.50
2022-09-02T17:06:59.980Z,39.60
2022-09-02T17:09:28.349Z,40.10
2022-09-02T17:11:56.658Z,39.60
2022-09-02T17:14:26.392Z,39.60
2022-09-02T17:16:54.810Z,39.50
2022-09-02T17:19:27.171Z,39.50
2022-09-02T17:21:58.415Z,39.60
2022-09-02T17:24:30.707Z,39.60
2022-09-02T17:27:00.518Z,39.60
2022-09-02T17:32:19.740Z,39.40
2022-09-02T17:34:50.246Z,39.60
2022-09-02T17:37:18.660Z,39.50
2022-09-02T17:39:47.146Z,39.40
2022-09-02T17:42:15.315Z,39.50
2022-09-02T17:44:45.079Z,39.50
2022-09-02T17:47:18.705Z,39.60
2022-09-02T17:49:48.331Z,39.50
2022-09-02T17:52:19.644Z,39.50
2022-09-02T17:54:50.905Z,39.40
2022-09-02T17:57:33.584Z,39.30
2022-09-02T18:00:12.071Z,39.30
2022-09-02T18:03:00.241Z,39.20
2022-09-02T18:05:33.512Z,39.40
2022-09-02T18:08:10.292Z,39.50
2022-09-02T18:10:41.680Z,39.60
2022-09-02T18:13:14.349Z,39.80
2022-09-02T18:15:58.088Z,39.80
2022-09-02T18:18:28.397Z,39.80
2022-09-02T18:21:04.858Z,39.90
2022-09-02T18:23:55.285Z,40.00
2022-09-02T18:26:36.586Z,40.00
2022-09-02T18:29:16.259Z,40.10
2022-09-02T18:31:57.696Z,40.20
2022-09-02T18:34:41.773Z,40.30
2022-09-02T18:37:17.545Z,40.40
2022-09-02T18:40:03.309Z,40.50
2022-09-02T18:42:45.361Z,40.50
2022-09-02T18:45:22.703Z,40.50
2022-09-02T18:47:57.845Z,40.60
2022-09-02T18:50:49.985Z,40.70
2022-09-02T18:53:24.327Z,40.80
2022-09-02T18:55:54.584Z,40.90
2022-09-02T18:58:37.738Z,41.00
2022-09-02T19:01:12.508Z,41.10
2022-09-02T19:03:42.274Z,41.10
2022-09-02T19:06:24.236Z,41.10
2022-09-02T19:08:57.743Z,41.20
2022-09-02T19:11:27.356Z,41.30
2022-09-02T19:14:00.843Z,41.30
2022-09-02T19:16:34.438Z,41.40
2022-09-02T19:19:05.216Z,41.40
2022-09-02T19:21:37.783Z,41.50
2022-09-02T19:24:10.169Z,41.50
2022-09-02T19:26:39.475Z,41.60
2022-09-02T19:29:08.608Z,41.80
2022-09-02T19:31:42.420Z,41.80
2022-09-02T19:34:13.548Z,41.90
2022-09-02T19:36:46.272Z,42.00
2022-09-02T19:39:14.644Z,42.00
2022-09-02T19:41:43.080Z,42.10
2022-09-02T19:44:14.284Z,42.10
2022-09-02T19:49:34.570Z,42.40
2022-09-02T19:52:03.254Z,42.40
2022-09-02T19:54:32.392Z,42.50
2022-09-02T19:57:01.127Z,42.50
2022-09-02T19:59:29.659Z,42.50
2022-09-02T20:01:58.694Z,42.50
2022-09-02T20:04:29.798Z,42.70
2022-09-02T20:07:02.520Z,42.60
2022-09-02T20:09:32.412Z,42.70
2022-09-02T20:12:02.172Z,42.80
2022-09-02T20:14:31.486Z,42.80
2022-09-02T20:17:05.125Z,42.90
2022-09-02T20:19:34.857Z,43.00
2022-09-02T20:22:05.906Z,43.00
2022-09-02T20:24:37.438Z,43.10
2022-09-02T20:27:21.871Z,43.10
2022-09-02T20:30:08.940Z,43.30
2022-09-02T20:32:46.214Z,43.40
2022-09-02T20:35:44.115Z,43.40
2022-09-02T20:38:32.890Z,43.50
2022-09-02T20:41:10.870Z,43.60
2022-09-02T20:44:04.760Z,43.50
2022-09-02T20:46:53.805Z,43.70
2022-09-02T20:49:57.587Z,43.70
2022-09-02T20:52:38.294Z,43.80
2022-09-02T20:55:16.535Z,43.80
2022-09-02T20:58:17.993Z,44.00
2022-09-02T21:01:03.568Z,44.10
2022-09-02T21:03:42.179Z,44.20
2022-09-02T21:06:12.295Z,44.20
2022-09-02T21:08:50.068Z,44.20
2022-09-02T21:11:29.627Z,44.40
2022-09-02T21:14:07.548Z,44.30
2022-09-02T21:16:40.239Z,44.30
2022-09-02T21:19:16.146Z,44.30
2022-09-02T21:21:51.436Z,44.40
2022-09-02T21:24:28.148Z,45.10
2022-09-02T21:27:06.245Z,44.50
2022-09-02T21:29:43.795Z,44.70
2022-09-02T21:32:21.171Z,44.80
2022-09-02T21:34:56.342Z,44.70
2022-09-02T21:37:26.607Z,44.80
2022-09-02T21:39:58.793Z,45.30
2022-09-02T21:42:42.233Z,44.80
2022-09-02T21:45:18.936Z,45.10
2022-09-02T21:47:59.573Z,45.10
2022-09-02T21:50:43.977Z,45.10
2022-09-02T21:53:22.814Z,45.20
2022-09-02T21:56:04.390Z,45.30
2022-09-02T21:59:06.727Z,45.30
2022-09-02T22:01:45.236Z,45.50
2022-09-02T22:04:29.068Z,45.30
2022-09-02T22:07:07.158Z,45.40
2022-09-02T22:09:35.883Z,45.40
2022-09-02T22:12:09.542Z,45.30
2022-09-02T22:14:48.177Z,45.50
2022-09-02T22:17:26.289Z,45.60
2022-09-02T22:19:59.293Z,45.50
2022-09-02T22:22:31.964Z,45.50
2022-09-02T22:25:00.295Z,45.60
2022-09-02T22:27:34.248Z,45.60
2022-09-02T22:30:08.997Z,45.70
2022-09-02T22:32:41.871Z,45.70
2022-09-02T22:35:24.855Z,45.80
2022-09-02T22:38:00.941Z,45.90
2022-09-02T22:40:35.333Z,45.80
2022-09-02T22:43:20.120Z,45.80
2022-09-02T22:46:15.075Z,45.90
2022-09-02T22:49:09.497Z,46.00
2022-09-02T22:52:19.014Z,46.00
2022-09-02T22:54:48.276Z,46.00
2022-09-02T22:57:33.947Z,46.00
2022-09-02T23:00:10.407Z,46.20
2022-09-02T23:02:47.558Z,46.20
2022-09-02T23:05:45.564Z,46.30
2022-09-02T23:08:17.468Z,46.50
2022-09-02T23:10:54.242Z,46.20
2022-09-02T23:13:39.227Z,46.30
2022-09-02T23:16:20.058Z,46.40
2022-09-02T23:19:06.220Z,46.30
2022-09-02T23:21:41.634Z,46.40
2022-09-02T23:24:19.979Z,46.30
2022-09-02T23:26:59.442Z,46.40
2022-09-02T23:29:35.646Z,46.40
2022-09-02T23:32:43.406Z,46.30
2022-09-02T23:35:23.881Z,46.50
2022-09-02T23:38:19.403Z,46.50
2022-09-02T23:40:52.928Z,47.20
2022-09-02T23:43:22.108Z,46.40
2022-09-02T23:45:50.461Z,46.40
2022-09-02T23:48:37.820Z,46.50
2022-09-02T23:51:19.222Z,46.60
2022-09-02T23:54:12.985Z,46.80
2022-09-02T23:57:02.647Z,47.00
2022-09-02T23:59:55.152Z,46.80
